Akron, Indiana
Current Conditions -  °F | °C
As of 7:55 PM on Monday 24 Nov 2014 (Local Time) from KRCR Reporting Station
Overcast Overcast  
Wind Chill: 23°   Ceiling: 2000
Heat Index: 34°   Visibility: 10mi
Dew Point: 30°   Wind: 18mph
Humidity: 87%   Direction: 240°WSW
Pressure: 29.73"   Gusts: 37mph
Location:  41.04°N, 86.03°W
Report Text: KRCR 250055Z AUTO 24016G32KT 10SM OVC020 01/M01 A2973 RMK AO2
Loading
Personal Weather Stations






























Interactive Weather Map New forecast layout! Learn more

10-Day Weather Forecast

Advertisements
Track Severe Weather on mobile